DIBK

Bouaké Airport

Côte D’Ivoire
TAF DIBK 242300Z 2500/2524 VRB02KT 8000 SCT011 PROB40 TEMPO 2502/2508 3500 BR FEW006 BKN010 PROB30 TEMPO 2503/2507 0800 FG TEMPO 2508/2512 BKN011 BECMG 2511/2512 22010KT
Issued Valid From Valid To
Sep-24 @ 23:00 UTC
(2 hours ago)
Sep-25 @ 00:00 UTC
(an hour ago)
Sep-26 @ 00:00 UTC
(in 23 hours)
Sep-25 @ 00:00 to Sep-25 @ 11:00
TAF DIBK 242300Z 2500/2524 VRB02KT 8000 SCT011
Wind Visibility Clouds
Variable at 2 knots 7,998 meters
  • Scattered at 1,100' AGL
Temporary  (Probability 40%) Sep-25 @ 02:00 to Sep-25 @ 08:00
PROB40 TEMPO 2502/2508 3500 BR FEW006 BKN010
Visibility Clouds Conditions
3,492 meters
  • Few at 600' AGL
  • Broken at 1,000' AGL
  • Mist
Temporary  (Probability 30%) Sep-25 @ 03:00 to Sep-25 @ 07:00
PROB30 TEMPO 2503/2507 0800 FG
Visibility Conditions
805 meters
  • Fog
Temporary Sep-25 @ 08:00 to Sep-25 @ 12:00
TEMPO 2508/2512 BKN011
Clouds
  • Broken at 1,100' AGL
Becoming Sep-25 @ 11:00 to Sep-26 @ 00:00
BECMG 2511/2512 22010KT
Wind Visibility Clouds
220° at 10 knots 7,998 meters
  • Scattered at 1,100' AGL
TAF DIBK 242300Z 2500/2524 VRB02KT 8000 SCT011 PROB40 TEMPO 2502/2508 3500 BR FEW006 BKN010 PROB30 TEMPO 2503/2507 0800 FG TEMPO 2508/2512 BKN011 BECMG 2511/2512 22010KT
Issued Sep-24 @ 23:00 UTC
(2 hours ago)
Valid From Sep-25 @ 00:00 UTC
(an hour ago)
Valid To Sep-26 @ 00:00 UTC
(in 23 hours)
Sep-25 @ 00:00 - Sep-25 @ 11:00
Wind Visibility
Variable at 2 knots 7,998 meters
Clouds
  • Scattered at 1,100' AGL
Probability 40% Temporary Sep-25 @ 02:00 - Sep-25 @ 08:00
Clouds
  • Few at 600' AGL
  • Broken at 1,000' AGL
Conditions
  • Mist
Probability 30% Temporary Sep-25 @ 03:00 - Sep-25 @ 07:00
Conditions
  • Fog
Temporary Sep-25 @ 08:00 - Sep-25 @ 12:00
Clouds
  • Broken at 1,100' AGL
Becoming Sep-25 @ 11:00 - Sep-26 @ 00:00
Wind Visibility
220° at 10 knots 7,998 meters
Clouds
  • Scattered at 1,100' AGL